Time;durP1;ratioP1;P1;durP2;ratioP2;P2;SDS_P1;SDS_P2;PMS_P1;PMS_P2;Temp;Humidity;BMP_temperature;BMP_pressure;BME280_temperature;BME280_humidity;BME280_pressure;Samples;Min_cycle;Max_cycle;Signal;HPM_P1;HPM_P2
2022/04/27 00:00:42;;;;;;;21.88;16.35;;;8.80;99.90;;;;;;5102158;28;20498;-67
2022/04/27 00:03:10;;;;;;;23.50;17.15;;;8.80;99.90;;;;;;5096759;28;20544;-65
2022/04/27 00:05:38;;;;;;;22.00;15.27;;;8.80;99.90;;;;;;5106318;28;20514;-66
2022/04/27 00:08:06;;;;;;;26.08;17.75;;;8.80;99.90;;;;;;5110345;28;20063;-66
2022/04/27 00:10:34;;;;;;;24.95;17.55;;;8.80;99.90;;;;;;5110800;28;20051;-65
2022/04/27 00:13:01;;;;;;;25.60;17.98;;;8.80;99.90;;;;;;5103670;28;20498;-65
2022/04/27 00:15:28;;;;;;;25.67;17.77;;;8.80;99.90;;;;;;5108372;28;20044;-65
2022/04/27 00:17:56;;;;;;;27.95;17.45;;;8.80;99.90;;;;;;5109654;28;20122;-66
2022/04/27 00:20:23;;;;;;;24.98;16.75;;;8.90;99.90;;;;;;5107702;28;20092;-67
2022/04/27 00:22:51;;;;;;;23.75;17.60;;;8.90;99.90;;;;;;5112303;27;20170;-67
2022/04/27 00:25:19;;;;;;;24.02;16.85;;;8.90;99.90;;;;;;5105207;28;20119;-65
2022/04/27 00:27:46;;;;;;;24.27;16.58;;;8.90;99.90;;;;;;5110413;28;20519;-64
2022/04/27 00:30:14;;;;;;;22.73;15.75;;;8.90;99.90;;;;;;5107841;28;20055;-65
2022/04/27 00:32:41;;;;;;;24.50;16.70;;;8.80;99.90;;;;;;5111854;28;20092;-66
2022/04/27 00:35:09;;;;;;;26.23;17.77;;;8.80;99.90;;;;;;5096523;28;20130;-65
2022/04/27 00:37:37;;;;;;;23.15;16.45;;;8.80;99.90;;;;;;5109701;28;20508;-65
2022/04/27 00:40:04;;;;;;;23.30;16.50;;;8.90;99.90;;;;;;5111262;28;20097;-64
2022/04/27 00:42:32;;;;;;;22.35;15.82;;;8.80;99.90;;;;;;5112002;28;20120;-64
2022/04/27 00:45:00;;;;;;;23.08;15.02;;;8.80;99.90;;;;;;5101678;28;20043;-64
2022/04/27 00:47:30;;;;;;;20.90;14.88;;;8.80;99.90;;;;;;5110331;28;20058;-65
2022/04/27 00:49:58;;;;;;;24.27;15.68;;;8.80;99.90;;;;;;5111645;28;20107;-64
2022/04/27 00:52:25;;;;;;;25.88;16.98;;;8.70;99.90;;;;;;5095958;28;20400;-65
2022/04/27 00:54:53;;;;;;;23.23;15.82;;;8.70;99.90;;;;;;5109864;28;20394;-65
2022/04/27 00:57:25;;;;;;;19.92;14.82;;;8.70;99.90;;;;;;5109710;28;20079;-65
2022/04/27 00:59:53;;;;;;;20.60;15.02;;;8.70;99.90;;;;;;5096370;28;20072;-66
2022/04/27 01:02:21;;;;;;;20.98;14.20;;;8.70;99.90;;;;;;5088480;28;20074;-66
2022/04/27 01:04:49;;;;;;;23.55;15.15;;;8.70;99.90;;;;;;5086744;28;20122;-65
2022/04/27 01:07:17;;;;;;;24.83;16.20;;;8.70;99.90;;;;;;5110444;28;20035;-65
2022/04/27 01:09:44;;;;;;;22.85;15.95;;;8.70;99.90;;;;;;5105628;28;20576;-66
2022/04/27 01:12:12;;;;;;;22.15;15.57;;;8.70;99.90;;;;;;5098343;28;20039;-66
2022/04/27 01:14:59;;;;;;;23.75;15.48;;;8.70;99.90;;;;;;5109197;28;20035;-65
2022/04/27 01:17:26;;;;;;;22.05;14.82;;;8.60;99.90;;;;;;5109435;28;20071;-65
2022/04/27 01:19:53;;;;;;;20.52;13.30;;;8.70;99.90;;;;;;5108637;28;20113;-66
2022/04/27 01:22:21;;;;;;;19.45;13.65;;;8.60;99.90;;;;;;5118497;27;20494;-65
2022/04/27 01:24:50;;;;;;;24.08;15.25;;;8.60;99.90;;;;;;5101066;28;20046;-65
2022/04/27 01:27:18;;;;;;;21.92;14.95;;;8.70;99.90;;;;;;5103952;28;20473;-65
2022/04/27 01:29:45;;;;;;;22.27;14.00;;;8.70;99.90;;;;;;5111435;28;20408;-64
2022/04/27 01:32:15;;;;;;;25.13;14.65;;;8.70;99.90;;;;;;5109124;28;20053;-65
2022/04/27 01:34:42;;;;;;;20.30;13.68;;;8.60;99.90;;;;;;5101347;28;20384;-65
2022/04/27 01:39:56;;;;;;;21.58;13.40;;;8.60;99.90;;;;;;5100498;28;20048;-64
2022/04/27 01:42:24;;;;;;;22.00;14.63;;;8.60;99.90;;;;;;5108235;28;20047;-65
2022/04/27 01:44:52;;;;;;;22.95;16.25;;;8.60;99.90;;;;;;5109061;28;20483;-64
2022/04/27 01:47:19;;;;;;;21.83;14.88;;;8.60;99.90;;;;;;5110284;27;20131;-65
2022/04/27 01:49:47;;;;;;;20.92;14.05;;;8.60;99.90;;;;;;5093138;28;20059;-65
2022/04/27 01:55:00;;;;;;;23.00;15.80;;;8.60;99.90;;;;;;5104302;28;20036;-65
2022/04/27 01:57:28;;;;;;;21.90;15.40;;;8.60;99.90;;;;;;5108202;27;20067;-64
2022/04/27 01:59:55;;;;;;;24.33;15.43;;;8.60;99.90;;;;;;5089809;28;20043;-66
2022/04/27 02:02:23;;;;;;;20.45;15.27;;;8.50;99.90;;;;;;5077470;28;20059;-66
2022/04/27 02:04:53;;;;;;;22.10;15.73;;;8.60;99.90;;;;;;5082889;28;20036;-64
2022/04/27 02:07:21;;;;;;;25.70;16.58;;;8.50;99.90;;;;;;5108693;28;20061;-66
2022/04/27 02:09:49;;;;;;;28.30;16.60;;;8.50;99.90;;;;;;5107616;28;20118;-65
2022/04/27 02:12:17;;;;;;;22.45;15.02;;;8.60;99.90;;;;;;5091639;28;20043;-65
2022/04/27 02:14:49;;;;;;;;;;;8.60;99.90;;;;;;5104868;28;20514;-66
2022/04/27 02:17:16;;;;;;;20.30;13.98;;;8.50;99.90;;;;;;5096734;28;19927;-65
2022/04/27 02:19:43;;;;;;;21.20;14.85;;;8.50;99.90;;;;;;5109728;28;20050;-65
2022/04/27 02:22:11;;;;;;;20.92;13.77;;;8.50;99.90;;;;;;5105980;28;20105;-65
2022/04/27 02:24:38;;;;;;;22.20;14.40;;;8.50;99.90;;;;;;5107465;28;20043;-65
2022/04/27 02:27:05;;;;;;;19.95;13.93;;;8.60;99.90;;;;;;5107158;28;20077;-65
2022/04/27 02:29:32;;;;;;;21.42;15.15;;;8.50;99.90;;;;;;5098490;28;20035;-65
2022/04/27 02:32:15;;;;;;;20.73;14.82;;;8.50;99.90;;;;;;5104986;28;20051;-65
2022/04/27 02:34:42;;;;;;;23.35;15.07;;;8.50;99.90;;;;;;5083190;28;20082;-64
2022/04/27 02:37:10;;;;;;;24.30;15.88;;;8.50;99.90;;;;;;5102735;28;20052;-64
2022/04/27 02:39:40;;;;;;;23.30;14.88;;;8.50;99.90;;;;;;5106743;28;20067;-66
2022/04/27 02:42:08;;;;;;;22.52;15.13;;;8.50;99.90;;;;;;5107774;28;20043;-64
2022/04/27 02:44:36;;;;;;;20.40;14.02;;;8.50;99.90;;;;;;5104242;28;20052;-65
2022/04/27 02:47:04;;;;;;;23.35;16.23;;;8.50;99.90;;;;;;5106815;28;20429;-65
2022/04/27 02:52:19;;;;;;;22.08;14.93;;;8.50;99.90;;;;;;5101604;28;20039;-65
2022/04/27 02:55:18;;;;;;;21.48;14.05;;;8.50;99.90;;;;;;5104532;28;20050;-64
2022/04/27 02:57:46;;;;;;;23.77;15.65;;;8.40;99.90;;;;;;5108435;28;20564;-65
2022/04/27 03:00:13;;;;;;;20.20;15.00;;;8.50;99.90;;;;;;5082324;28;20600;-65
2022/04/27 03:02:41;;;;;;;21.38;14.73;;;8.40;99.90;;;;;;5086253;28;20047;-64
2022/04/27 03:05:10;;;;;;;21.08;14.13;;;8.40;99.90;;;;;;5084990;28;20407;-65
2022/04/27 03:07:37;;;;;;;21.70;13.85;;;8.40;99.90;;;;;;5097183;28;20422;-65
2022/04/27 03:10:05;;;;;;;20.60;13.88;;;8.50;99.90;;;;;;5089848;28;20118;-64
2022/04/27 03:12:35;;;;;;;22.15;15.02;;;8.40;99.90;;;;;;5088742;28;20152;-65
2022/04/27 03:15:05;;;;;;;22.90;14.90;;;8.40;99.90;;;;;;5089932;28;20051;-65
2022/04/27 03:17:33;;;;;;;23.58;14.88;;;8.40;99.90;;;;;;5098905;28;20092;-65
2022/04/27 03:20:02;;;;;;;21.27;14.38;;;8.40;99.90;;;;;;5095849;28;20050;-65
2022/04/27 03:22:30;;;;;;;21.45;14.38;;;8.40;99.90;;;;;;5092239;28;20048;-65
2022/04/27 03:24:57;;;;;;;23.10;15.40;;;8.50;99.90;;;;;;5089565;28;20043;-65
2022/04/27 03:27:27;;;;;;;19.92;13.27;;;8.40;99.90;;;;;;5089387;28;20086;-65
2022/04/27 03:29:54;;;;;;;19.90;13.55;;;8.40;99.90;;;;;;5102886;28;20048;-65
2022/04/27 03:32:22;;;;;;;23.13;14.10;;;8.40;99.90;;;;;;5096161;28;20066;-65
2022/04/27 03:35:02;;;;;;;19.05;13.55;;;8.40;99.90;;;;;;5094467;28;20054;-66
2022/04/27 03:37:31;;;;;;;17.77;11.43;;;8.40;99.90;;;;;;5109338;28;20063;-65
2022/04/27 03:40:00;;;;;;;17.67;11.23;;;8.40;99.90;;;;;;5111922;28;20062;-65
2022/04/27 03:42:28;;;;;;;13.75;10.45;;;8.30;99.90;;;;;;5092782;28;20471;-65
2022/04/27 03:45:01;;;;;;;14.45;10.27;;;8.30;99.90;;;;;;5111062;28;20035;-65
2022/04/27 03:47:35;;;;;;;17.85;11.38;;;8.20;99.90;;;;;;5108815;28;20035;-65
2022/04/27 03:50:04;;;;;;;17.63;11.63;;;8.20;99.90;;;;;;5109716;28;20801;-64
2022/04/27 03:52:44;;;;;;;18.75;11.23;;;8.10;99.90;;;;;;5109966;28;20135;-64
2022/04/27 03:55:12;;;;;;;18.38;12.45;;;8.10;99.90;;;;;;5107552;28;20143;-65
2022/04/27 03:57:42;;;;;;;16.27;11.55;;;8.10;99.90;;;;;;5124738;27;20044;-65
2022/04/27 04:00:10;;;;;;;16.98;10.73;;;8.10;99.90;;;;;;5104517;28;20119;-64
2022/04/27 04:02:47;;;;;;;17.63;11.93;;;8.10;99.90;;;;;;5090319;28;20048;-66
2022/04/27 04:05:14;;;;;;;13.75;10.32;;;8.10;99.90;;;;;;5108300;28;20096;-65
2022/04/27 04:07:41;;;;;;;17.15;11.13;;;8.10;99.90;;;;;;5104980;28;20047;-65
2022/04/27 04:10:09;;;;;;;16.13;10.98;;;8.10;99.90;;;;;;5109106;28;20495;-66
2022/04/27 04:12:40;;;;;;;13.65;9.48;;;8.10;99.90;;;;;;5104390;28;20147;-65
2022/04/27 04:15:30;;;;;;;22.40;13.20;;;8.00;99.90;;;;;;5051370;28;20242;-66
2022/04/27 04:18:18;;;;;;;16.10;10.02;;;8.00;99.90;;;;;;5066050;28;20136;-65
2022/04/27 04:21:02;;;;;;;15.02;10.45;;;8.00;99.90;;;;;;5068320;28;20170;-66
2022/04/27 04:23:50;;;;;;;16.83;10.90;;;8.00;99.90;;;;;;5022896;28;20060;-66
2022/04/27 04:29:04;;;;;;;20.45;11.60;;;8.00;99.90;;;;;;5050279;28;20029;-66
2022/04/27 04:31:33;;;;;;;13.70;10.02;;;8.00;99.90;;;;;;5067737;28;20072;-65
2022/04/27 04:34:10;;;;;;;14.07;9.43;;;8.00;99.90;;;;;;5066941;28;20199;-65
2022/04/27 04:36:37;;;;;;;14.73;9.68;;;8.00;99.90;;;;;;5058000;28;20070;-66
2022/04/27 04:39:04;;;;;;;13.30;8.63;;;8.00;99.90;;;;;;5046204;28;20076;-64
2022/04/27 04:41:36;;;;;;;13.55;9.32;;;7.90;99.90;;;;;;5050102;28;20049;-64
2022/04/27 04:44:05;;;;;;;14.13;9.35;;;8.00;99.90;;;;;;5066384;28;20055;-65
2022/04/27 04:46:51;;;;;;;14.90;9.98;;;8.00;99.90;;;;;;5059050;28;20144;-65
2022/04/27 04:49:32;;;;;;;15.90;9.93;;;8.00;99.90;;;;;;5049339;28;20072;-65
2022/04/27 04:52:32;;;;;;;14.88;10.10;;;8.00;99.90;;;;;;5086872;28;20067;-65
2022/04/27 04:55:17;;;;;;;14.30;10.38;;;8.10;99.90;;;;;;5109200;28;20055;-65
2022/04/27 04:58:11;;;;;;;18.13;11.40;;;8.10;99.90;;;;;;5070996;28;20689;-65
2022/04/27 05:00:52;;;;;;;15.40;10.38;;;8.10;99.90;;;;;;5090170;28;20051;-65
2022/04/27 05:03:49;;;;;;;19.85;13.07;;;8.30;99.90;;;;;;5087627;28;20063;-65
2022/04/27 05:06:33;;;;;;;19.33;12.77;;;8.30;99.90;;;;;;5102159;28;20123;-65
2022/04/27 05:09:19;;;;;;;16.77;11.27;;;8.40;99.90;;;;;;5102633;28;20043;-65
2022/04/27 05:12:20;;;;;;;22.50;13.25;;;8.50;99.90;;;;;;5090049;28;20036;-65
2022/04/27 05:15:15;;;;;;;17.17;11.90;;;8.50;99.90;;;;;;5094111;28;20454;-66
2022/04/27 05:17:46;;;;;;;17.80;12.38;;;8.60;99.90;;;;;;5109250;28;20214;-65
2022/04/27 05:20:23;;;;;;;17.65;12.07;;;8.70;99.90;;;;;;5107641;28;20040;-66
2022/04/27 05:22:50;;;;;;;17.65;10.68;;;8.70;99.90;;;;;;5110333;28;20040;-66
2022/04/27 05:25:38;;;;;;;15.02;10.52;;;8.70;99.90;;;;;;5085417;28;20109;-65
2022/04/27 05:28:24;;;;;;;16.75;11.43;;;8.80;99.90;;;;;;5111709;28;20042;-65
2022/04/27 05:34:26;;;;;;;20.45;13.30;;;8.80;99.90;;;;;;5108548;28;20055;-65
2022/04/27 05:36:58;;;;;;;13.85;8.93;;;8.90;99.90;;;;;;5095863;28;20493;-66
2022/04/27 05:40:02;;;;;;;14.50;9.82;;;9.00;99.90;;;;;;5089908;28;20418;-65
2022/04/27 05:42:39;;;;;;;13.40;9.52;;;9.10;99.90;;;;;;5088391;27;20048;-64
2022/04/27 05:45:25;;;;;;;11.75;8.85;;;9.20;99.90;;;;;;5092820;28;20040;-65
2022/04/27 05:48:12;;;;;;;11.73;8.63;;;9.50;99.90;;;;;;5089610;27;20032;-65
2022/04/27 05:50:42;;;;;;;10.43;7.68;;;9.70;99.90;;;;;;5092221;28;20047;-65
2022/04/27 05:53:33;;;;;;;14.88;8.75;;;9.80;99.90;;;;;;5091884;28;20044;-65
2022/04/27 05:56:20;;;;;;;13.10;8.13;;;9.90;99.90;;;;;;5103352;28;20079;-66
2022/04/27 05:59:13;;;;;;;10.10;7.30;;;9.90;99.90;;;;;;5097985;28;20040;-64
2022/04/27 06:02:07;;;;;;;9.60;7.07;;;10.10;99.90;;;;;;5095800;28;20059;-65
2022/04/27 06:04:36;;;;;;;8.88;6.55;;;10.10;99.90;;;;;;5108185;28;20417;-66
2022/04/27 06:07:06;;;;;;;10.00;6.72;;;10.20;99.90;;;;;;5096112;28;20044;-65
2022/04/27 06:09:33;;;;;;;8.68;6.28;;;10.40;99.90;;;;;;5106521;28;20126;-65
2022/04/27 06:12:19;;;;;;;11.18;7.70;;;10.50;99.90;;;;;;5081826;28;20575;-66
2022/04/27 06:15:13;;;;;;;7.80;5.50;;;10.60;99.90;;;;;;5104602;28;20070;-66
2022/04/27 06:17:41;;;;;;;8.32;6.05;;;10.80;99.90;;;;;;5087116;28;20108;-65
2022/04/27 06:20:09;;;;;;;8.27;5.85;;;10.80;99.90;;;;;;5104253;28;20099;-66
2022/04/27 06:22:37;;;;;;;8.25;6.35;;;10.80;99.90;;;;;;5104347;28;20044;-66
2022/04/27 06:25:05;;;;;;;10.55;5.85;;;10.90;99.90;;;;;;5091513;28;20137;-66
2022/04/27 06:27:41;;;;;;;7.60;5.38;;;10.90;99.90;;;;;;5104373;28;20093;-65
2022/04/27 06:30:10;;;;;;;9.30;6.32;;;10.90;99.90;;;;;;5085254;28;20136;-65
2022/04/27 06:32:39;;;;;;;8.32;5.70;;;11.00;99.90;;;;;;5098528;28;20101;-65
2022/04/27 06:35:12;;;;;;;8.55;4.72;;;11.20;99.90;;;;;;5106786;28;20502;-66
2022/04/27 06:37:42;;;;;;;6.38;4.75;;;11.20;99.90;;;;;;5098107;28;20059;-66
2022/04/27 06:40:10;;;;;;;6.07;4.50;;;11.30;99.90;;;;;;5097320;27;20143;-65
2022/04/27 06:42:42;;;;;;;7.63;5.03;;;11.40;99.90;;;;;;5103986;28;20099;-65
2022/04/27 06:45:28;;;;;;;6.47;4.45;;;11.50;99.90;;;;;;5100850;28;20039;-65
2022/04/27 06:48:14;;;;;;;6.32;4.00;;;11.60;99.90;;;;;;5104660;28;20496;-66
2022/04/27 06:51:10;;;;;;;7.20;4.53;;;11.80;99.90;;;;;;5071615;28;20586;-64
2022/04/27 06:53:58;;;;;;;6.20;4.13;;;11.60;99.90;;;;;;5069418;28;20434;-66
2022/04/27 06:56:34;;;;;;;5.45;3.92;;;11.60;99.90;;;;;;5072547;28;20051;-66
2022/04/27 06:59:14;;;;;;;5.45;3.75;;;11.50;99.90;;;;;;5055506;28;20048;-67
2022/04/27 07:01:44;;;;;;;5.15;3.92;;;11.50;99.90;;;;;;5058781;28;20514;-66
2022/04/27 07:04:12;;;;;;;5.60;3.88;;;11.30;99.90;;;;;;5090877;28;20121;-65
2022/04/27 07:06:39;;;;;;;5.95;4.15;;;11.40;99.90;;;;;;5072704;28;20084;-66
2022/04/27 07:09:13;;;;;;;6.57;4.82;;;11.50;99.90;;;;;;5070840;28;20127;-66
2022/04/27 07:11:40;;;;;;;7.43;5.00;;;11.50;99.90;;;;;;5071440;28;20604;-65
2022/04/27 07:14:10;;;;;;;6.60;4.70;;;11.20;99.90;;;;;;5072336;28;20067;-65
2022/04/27 07:16:37;;;;;;;8.13;5.05;;;11.30;99.90;;;;;;5072408;28;20430;-66
2022/04/27 07:19:05;;;;;;;6.78;5.03;;;11.40;99.90;;;;;;5067400;28;20594;-65
2022/04/27 07:21:32;;;;;;;7.05;5.32;;;11.50;99.90;;;;;;5071665;28;20127;-65
2022/04/27 07:24:02;;;;;;;6.50;5.00;;;11.50;99.90;;;;;;5072133;28;20364;-66
2022/04/27 07:26:30;;;;;;;6.15;5.03;;;11.60;99.90;;;;;;5071664;28;20056;-64
2022/04/27 07:28:57;;;;;;;8.27;5.70;;;11.40;99.90;;;;;;5111461;27;20469;-65
2022/04/27 07:31:25;;;;;;;7.47;5.43;;;11.40;99.90;;;;;;5100972;27;20159;-66
2022/04/27 07:33:53;;;;;;;7.13;5.53;;;11.40;99.90;;;;;;5106847;28;20073;-66
2022/04/27 07:36:20;;;;;;;7.68;5.90;;;11.60;99.90;;;;;;5113970;28;20122;-65
2022/04/27 07:38:49;;;;;;;9.23;6.25;;;11.60;99.90;;;;;;5097366;28;20483;-65
2022/04/27 07:41:17;;;;;;;7.45;6.00;;;11.70;99.90;;;;;;5097231;28;20036;-66
2022/04/27 07:43:44;;;;;;;8.38;6.07;;;11.80;99.90;;;;;;5102243;28;20498;-66
2022/04/27 07:46:11;;;;;;;7.15;5.60;;;11.80;99.90;;;;;;5100214;28;20141;-65
2022/04/27 07:48:39;;;;;;;9.70;6.70;;;11.60;99.90;;;;;;5112812;27;20035;-66
2022/04/27 07:51:07;;;;;;;8.45;5.70;;;11.80;99.90;;;;;;5105227;28;20110;-65
2022/04/27 07:53:34;;;;;;;8.00;5.80;;;11.90;99.90;;;;;;5103696;28;20472;-67
2022/04/27 07:56:04;;;;;;;7.25;5.55;;;12.20;99.90;;;;;;5112424;28;20044;-66
2022/04/27 07:58:31;;;;;;;8.20;5.68;;;12.20;99.90;;;;;;5110759;27;20379;-65
2022/04/27 08:01:00;;;;;;;7.78;6.20;;;12.40;99.90;;;;;;5097989;28;20568;-67
2022/04/27 08:03:28;;;;;;;8.52;6.22;;;12.50;99.90;;;;;;5091349;28;20146;-66
2022/04/27 08:05:56;;;;;;;7.60;6.00;;;12.60;99.90;;;;;;5104956;28;20109;-65
2022/04/27 08:08:23;;;;;;;8.63;6.50;;;12.90;99.90;;;;;;5098854;28;20039;-65
2022/04/27 08:10:54;;;;;;;9.23;6.80;;;13.00;99.90;;;;;;5111794;28;20047;-66
2022/04/27 08:13:22;;;;;;;10.05;6.90;;;13.20;99.90;;;;;;5103380;28;20401;-65
2022/04/27 08:15:50;;;;;;;8.30;6.45;;;13.40;99.90;;;;;;5111814;28;20073;-65
2022/04/27 08:18:17;;;;;;;10.32;6.80;;;13.60;99.90;;;;;;5110446;28;20039;-65
2022/04/27 08:23:34;;;;;;;9.85;6.93;;;13.80;99.90;;;;;;5105642;28;20036;-65
2022/04/27 08:26:04;;;;;;;8.73;6.32;;;13.90;99.90;;;;;;5111649;28;20117;-65
2022/04/27 08:28:32;;;;;;;10.52;7.28;;;14.00;99.90;;;;;;5105193;28;20160;-65
2022/04/27 08:31:00;;;;;;;11.50;7.53;;;13.90;99.90;;;;;;5101519;28;20047;-66
2022/04/27 08:33:28;;;;;;;10.63;7.43;;;13.80;99.90;;;;;;5105318;28;20055;-66
2022/04/27 08:35:57;;;;;;;10.00;7.55;;;13.70;99.90;;;;;;5098091;28;20036;-66
2022/04/27 08:38:45;;;;;;;9.85;7.25;;;13.70;99.90;;;;;;5102337;27;20510;-65
2022/04/27 08:41:12;;;;;;;10.00;8.07;;;13.80;99.90;;;;;;5103038;28;20122;-65
2022/04/27 08:43:39;;;;;;;9.63;7.50;;;13.90;99.90;;;;;;5104873;28;20434;-66
2022/04/27 08:46:08;;;;;;;11.50;7.50;;;14.00;99.90;;;;;;5104450;28;20350;-66
2022/04/27 08:48:36;;;;;;;10.35;7.35;;;14.10;99.90;;;;;;5109717;28;20067;-66
2022/04/27 08:51:04;;;;;;;9.30;7.72;;;14.20;99.90;;;;;;5102428;28;20153;-66
2022/04/27 08:53:33;;;;;;;8.82;6.93;;;14.30;99.90;;;;;;5102984;28;20832;-65
2022/04/27 08:56:01;;;;;;;9.75;8.07;;;14.60;99.90;;;;;;5111290;28;20076;-66
2022/04/27 08:58:28;;;;;;;10.65;8.38;;;14.70;99.90;;;;;;5105940;27;20070;-64
2022/04/27 09:01:12;;;;;;;9.43;7.47;;;14.40;99.90;;;;;;5100174;28;20484;-64
2022/04/27 09:03:41;;;;;;;9.48;8.07;;;14.60;99.90;;;;;;5104728;28;20254;-65
2022/04/27 09:06:12;;;;;;;10.35;7.57;;;14.30;99.90;;;;;;5103407;28;20121;-65
2022/04/27 09:08:55;;;;;;;9.93;7.93;;;14.70;99.90;;;;;;5109586;28;20408;-66
2022/04/27 09:11:29;;;;;;;13.13;7.90;;;15.10;99.90;;;;;;5106516;28;20048;-66
2022/04/27 09:14:07;;;;;;;9.45;7.60;;;15.30;99.90;;;;;;5104269;28;20466;-66
2022/04/27 09:22:44;;;;;;;9.25;7.88;;;16.00;99.90;;;;;;5100584;28;20561;-65
2022/04/27 09:25:11;;;;;;;9.75;8.02;;;16.10;99.90;;;;;;5102773;28;20086;-64
2022/04/27 09:27:41;;;;;;;11.88;8.02;;;16.30;99.90;;;;;;5098912;28;20044;-65
2022/04/27 09:30:14;;;;;;;10.18;7.53;;;16.50;99.90;;;;;;5095025;28;20058;-64
2022/04/27 09:32:51;;;;;;;10.75;7.63;;;16.70;99.90;;;;;;5098497;28;20506;-65
2022/04/27 09:35:38;;;;;;;10.25;7.72;;;16.60;99.90;;;;;;5098619;28;20043;-65
2022/04/27 09:38:40;;;;;;;9.57;8.30;;;16.30;99.90;;;;;;5106047;28;20028;-66
2022/04/27 09:41:07;;;;;;;10.50;7.38;;;16.20;99.90;;;;;;5102527;28;20067;-66
2022/04/27 09:43:49;;;;;;;9.50;7.45;;;16.00;99.90;;;;;;5094366;28;20048;-66
2022/04/27 09:46:24;;;;;;;10.00;7.97;;;16.00;99.90;;;;;;5093861;28;20067;-66
2022/04/27 09:49:08;;;;;;;21.58;12.68;;;16.00;99.90;;;;;;5095656;28;20051;-65
2022/04/27 09:52:00;;;;;;;11.55;8.32;;;15.50;99.90;;;;;;5090637;28;20483;-65
2022/04/27 09:54:29;;;;;;;10.13;7.97;;;15.50;99.90;;;;;;5107332;28;20044;-65
2022/04/27 09:56:59;;;;;;;10.15;8.07;;;15.50;99.90;;;;;;5108977;28;20159;-67
2022/04/27 09:59:31;;;;;;;9.10;6.75;;;15.80;99.90;;;;;;5109714;27;20221;-66
2022/04/27 10:02:10;;;;;;;9.20;7.20;;;15.90;99.90;;;;;;5089943;28;20035;-66
2022/04/27 10:04:39;;;;;;;10.85;7.63;;;16.30;99.90;;;;;;5106807;28;20838;-65
2022/04/27 10:07:10;;;;;;;9.43;7.32;;;16.40;99.90;;;;;;5103885;28;20088;-66
2022/04/27 10:09:39;;;;;;;9.38;7.25;;;16.50;99.90;;;;;;5107377;28;20047;-66
2022/04/27 10:12:15;;;;;;;10.88;7.60;;;16.70;99.90;;;;;;5107780;28;20445;-65
2022/04/27 10:14:42;;;;;;;10.27;7.47;;;17.20;99.90;;;;;;5107593;28;20541;-66
2022/04/27 10:17:15;;;;;;;10.23;6.70;;;17.40;99.90;;;;;;5108785;28;20040;-66
2022/04/27 10:19:50;;;;;;;10.98;7.53;;;17.60;99.90;;;;;;5094833;28;20036;-66
2022/04/27 10:22:33;;;;;;;10.02;7.10;;;17.80;99.90;;;;;;5108442;28;20035;-66
2022/04/27 10:25:09;;;;;;;8.95;6.20;;;17.90;99.90;;;;;;5101551;28;20118;-67
2022/04/27 10:27:41;;;;;;;9.10;6.28;;;17.90;99.90;;;;;;5104819;28;20075;-65
2022/04/27 10:30:13;;;;;;;8.00;6.15;;;18.30;99.90;;;;;;5098166;28;20524;-65
2022/04/27 10:32:41;;;;;;;9.40;7.20;;;18.60;99.90;;;;;;5101722;28;20041;-66
2022/04/27 10:35:12;;;;;;;7.90;5.80;;;18.90;99.90;;;;;;5100381;28;20515;-66
2022/04/27 10:37:50;;;;;;;7.90;5.40;;;18.90;99.90;;;;;;5109144;28;20070;-66
2022/04/27 10:40:42;;;;;;;7.28;5.85;;;18.90;99.90;;;;;;5107166;28;20043;-65
2022/04/27 10:43:24;;;;;;;11.10;5.78;;;19.20;99.90;;;;;;5099687;28;20478;-65
2022/04/27 10:45:51;;;;;;;7.78;5.75;;;19.10;99.90;;;;;;5097827;28;20131;-65
2022/04/27 10:48:23;;;;;;;7.60;5.10;;;18.90;99.90;;;;;;5104159;28;20126;-66
2022/04/27 10:51:03;;;;;;;7.65;5.90;;;18.50;99.90;;;;;;5088518;28;20052;-66
2022/04/27 10:53:43;;;;;;;7.53;5.60;;;18.20;99.90;;;;;;5094247;28;20127;-66
2022/04/27 10:56:31;;;;;;;7.45;5.75;;;17.90;99.90;;;;;;5106895;28;20549;-66
2022/04/27 10:58:59;;;;;;;9.05;6.10;;;17.80;99.90;;;;;;5102184;28;20116;-65
2022/04/27 11:01:31;;;;;;;8.73;5.95;;;17.60;99.90;;;;;;5102750;28;20043;-65
2022/04/27 11:04:04;;;;;;;8.25;6.13;;;17.20;99.90;;;;;;5086419;28;20050;-65
2022/04/27 11:07:15;;;;;;;7.32;5.82;;;17.00;99.90;;;;;;5088400;28;20100;-66
2022/04/27 11:10:14;;;;;;;7.15;5.70;;;16.70;99.90;;;;;;5065533;28;20127;-65
2022/04/27 11:12:50;;;;;;;7.40;5.68;;;16.70;99.90;;;;;;5097715;28;20069;-65
2022/04/27 11:15:18;;;;;;;8.73;5.93;;;16.70;99.90;;;;;;5104556;28;20273;-65
2022/04/27 11:17:51;;;;;;;7.93;6.28;;;16.90;99.90;;;;;;5109265;28;20070;-67
2022/04/27 11:20:23;;;;;;;8.60;6.07;;;16.90;99.90;;;;;;5106568;28;20051;-66
2022/04/27 11:22:51;;;;;;;8.10;6.45;;;16.90;99.90;;;;;;5106211;28;20047;-67
2022/04/27 11:25:28;;;;;;;8.63;5.38;;;17.10;99.90;;;;;;5105911;28;20046;-66
2022/04/27 11:27:56;;;;;;;8.40;6.28;;;17.40;99.90;;;;;;5107358;28;20052;-66
2022/04/27 11:30:25;;;;;;;7.97;6.22;;;17.60;99.90;;;;;;5075808;28;20461;-66
2022/04/27 11:32:53;;;;;;;6.82;4.95;;;17.80;99.90;;;;;;5099700;28;20150;-66
2022/04/27 11:35:23;;;;;;;7.22;5.45;;;17.70;99.90;;;;;;5098091;28;20083;-66
2022/04/27 11:37:52;;;;;;;7.15;5.78;;;18.00;99.90;;;;;;5103423;28;20052;-66
2022/04/27 11:40:26;;;;;;;8.18;5.93;;;18.60;99.90;;;;;;5109553;28;20047;-66
2022/04/27 11:42:53;;;;;;;6.82;5.15;;;18.90;99.90;;;;;;5093498;28;20483;-67
2022/04/27 11:45:23;;;;;;;8.50;6.03;;;19.40;99.90;;;;;;5096605;28;20085;-66
2022/04/27 11:47:59;;;;;;;9.75;5.05;;;19.50;99.90;;;;;;5092817;28;20077;-66
2022/04/27 11:50:38;;;;;;;8.32;5.60;;;19.20;99.90;;;;;;5093336;28;20040;-67
2022/04/27 11:53:07;;;;;;;6.55;4.95;;;18.80;99.90;;;;;;5105790;27;20032;-66
2022/04/27 11:55:36;;;;;;;9.40;5.30;;;18.60;99.90;;;;;;5095435;28;20517;-67
2022/04/27 11:58:05;;;;;;;8.40;5.57;;;18.30;99.90;;;;;;5091497;27;20032;-66
2022/04/27 12:00:34;;;;;;;6.47;5.40;;;18.30;99.90;;;;;;5091750;28;20111;-66
2022/04/27 12:03:06;;;;;;;6.28;5.13;;;18.20;99.90;;;;;;5091757;28;20613;-67
2022/04/27 12:05:38;;;;;;;7.55;5.50;;;18.10;99.90;;;;;;5092863;28;20563;-66
2022/04/27 12:08:11;;;;;;;7.35;5.18;;;17.90;99.90;;;;;;5091187;28;20047;-66
2022/04/27 12:10:43;;;;;;;7.68;5.15;;;17.70;99.90;;;;;;5094659;28;20043;-67
2022/04/27 12:13:12;;;;;;;7.40;5.57;;;17.60;99.90;;;;;;5092343;28;20032;-67
2022/04/27 12:15:42;;;;;;;8.57;5.45;;;17.70;99.90;;;;;;5093838;28;20371;-67
2022/04/27 12:18:25;;;;;;;6.90;4.95;;;17.50;99.90;;;;;;5092525;28;20418;-67
2022/04/27 12:20:55;;;;;;;6.38;4.75;;;17.70;99.90;;;;;;5095785;28;20039;-66
2022/04/27 12:23:34;;;;;;;6.03;4.13;;;18.00;99.90;;;;;;5093204;28;20071;-65
2022/04/27 12:26:02;;;;;;;7.75;5.30;;;18.00;99.90;;;;;;5098193;28;20068;-66
2022/04/27 12:28:32;;;;;;;6.57;5.35;;;18.10;99.90;;;;;;5094873;28;20130;-67
2022/04/27 12:31:04;;;;;;;7.55;5.43;;;18.10;99.90;;;;;;5095660;28;20044;-66
2022/04/27 12:33:35;;;;;;;6.18;4.38;;;18.30;99.90;;;;;;5091001;28;20609;-66
2022/04/27 12:39:04;;;;;;;7.03;5.10;;;19.10;99.90;;;;;;5095355;27;20154;-66
2022/04/27 12:41:41;;;;;;;7.60;5.40;;;19.30;99.90;;;;;;5092296;28;20509;-67
2022/04/27 12:44:15;;;;;;;8.05;5.20;;;18.80;99.90;;;;;;5088965;28;20036;-67
2022/04/27 12:47:01;;;;;;;9.00;5.57;;;19.30;99.90;;;;;;5096912;27;20048;-66
2022/04/27 12:49:34;;;;;;;7.70;5.20;;;19.50;99.90;;;;;;5098492;27;20135;-67
2022/04/27 12:52:26;;;;;;;8.00;5.35;;;19.40;99.90;;;;;;5099410;27;20086;-67
2022/04/27 12:55:10;;;;;;;6.72;5.20;;;20.30;99.90;;;;;;5094671;27;20554;-67
2022/04/27 12:57:55;;;;;;;8.45;4.25;;;21.10;99.90;;;;;;5102859;28;20418;-67
2022/04/27 13:00:36;;;;;;;5.97;3.95;;;21.50;99.90;;;;;;5090461;28;20063;-66
2022/04/27 13:03:06;;;;;;;4.90;3.60;;;21.60;99.90;;;;;;5094777;27;20047;-66
2022/04/27 13:05:33;;;;;;;6.22;3.88;;;21.40;99.90;;;;;;5095776;28;20136;-66
2022/04/27 13:08:01;;;;;;;5.38;3.55;;;21.20;99.90;;;;;;5094076;28;20050;-66
2022/04/27 13:13:18;;;;;;;9.70;4.32;;;20.80;99.90;;;;;;5095223;28;20547;-68
2022/04/27 13:15:46;;;;;;;4.97;3.38;;;20.40;99.90;;;;;;5090646;28;20118;-67
2022/04/27 13:18:14;;;;;;;5.72;4.00;;;20.30;99.90;;;;;;5092420;27;20086;-67
2022/04/27 13:20:42;;;;;;;5.63;3.88;;;20.10;99.90;;;;;;5090844;27;20050;-67
2022/04/27 13:23:14;;;;;;;7.75;5.40;;;19.60;99.90;;;;;;5092210;28;20036;-67
2022/04/27 13:25:41;;;;;;;5.22;3.95;;;19.10;99.90;;;;;;5107490;28;20481;-67
2022/04/27 13:28:09;;;;;;;5.68;4.10;;;19.00;99.90;;;;;;5097382;28;20036;-66
2022/04/27 13:30:37;;;;;;;7.35;3.90;;;18.90;99.90;;;;;;5107426;28;20044;-66
2022/04/27 13:33:05;;;;;;;4.90;4.03;;;18.70;99.90;;;;;;5101021;28;20382;-65
2022/04/27 13:35:32;;;;;;;6.72;4.03;;;18.70;99.90;;;;;;5107037;28;20039;-66
2022/04/27 13:38:00;;;;;;;5.68;4.18;;;18.50;99.90;;;;;;5109712;28;20039;-66
2022/04/27 13:40:27;;;;;;;6.47;3.83;;;18.50;99.90;;;;;;5097642;28;20101;-66